Time;durP1;ratioP1;P1;durP2;ratioP2;P2;SDS_P1;SDS_P2;PMS_P1;PMS_P2;Temp;Humidity;BMP_temperature;BMP_pressure;BME280_temperature;BME280_humidity;BME280_pressure;Samples;Min_cycle;Max_cycle;Signal;HPM_P1;HPM_P2
2022/04/22 07:03:52;;;;;;;6.07;4.60;;;;;;;;;;12852447;23;438170;-78
2022/04/22 07:08:54;;;;;;;6.15;4.75;;;;;;;;;;12868838;22;20067;-81
2022/04/22 07:13:56;;;;;;;8.52;7.45;;;;;;;;;;12851097;23;20008;-76
2022/04/22 07:18:59;;;;;;;6.60;5.00;;;;;;;;;;12852392;23;20016;-78
2022/04/22 07:24:00;;;;;;;8.07;6.82;;;;;;;;;;12860454;23;20011;-78
2022/04/22 07:29:03;;;;;;;8.80;7.88;;;;;;;;;;12854103;23;20313;-81
2022/04/22 07:34:04;;;;;;;7.22;4.88;;;;;;;;;;12854561;23;20007;-82
2022/04/22 07:39:06;;;;;;;5.78;4.80;;;;;;;;;;12857413;23;20068;-81
2022/04/22 07:49:29;;;;;;;10.68;9.60;;;;;;;;;;12901269;23;20009;-81
2022/04/22 07:54:30;;;;;;;6.97;5.72;;;;;;;;;;12870736;23;20028;-81
2022/04/22 07:59:32;;;;;;;7.55;6.63;;;;;;;;;;12871971;23;20052;-80
2022/04/22 08:04:34;;;;;;;6.50;5.82;;;;;;;;;;12883609;23;20428;-83
2022/04/22 08:09:35;;;;;;;10.13;8.15;;;;;;;;;;12847457;23;20018;-81
2022/04/22 08:14:37;;;;;;;9.68;6.75;;;;;;;;;;12873103;23;20024;-81
2022/04/22 08:19:43;;;;;;;11.65;10.20;;;;;;;;;;12821178;23;20013;-81
2022/04/22 08:24:44;;;;;;;9.57;8.32;;;;;;;;;;12846781;23;20080;-82
2022/04/22 08:29:48;;;;;;;9.77;8.77;;;;;;;;;;12872479;23;20044;-80
2022/04/22 08:34:51;;;;;;;8.82;7.25;;;;;;;;;;12847110;23;20000;-80
2022/04/22 08:39:55;;;;;;;9.32;8.05;;;;;;;;;;12824103;23;20047;-82
2022/04/22 08:44:56;;;;;;;10.30;8.50;;;;;;;;;;12852731;23;20050;-81
2022/04/22 08:50:02;;;;;;;8.65;7.50;;;;;;;;;;12849810;23;20040;-80
2022/04/22 08:55:07;;;;;;;8.23;7.30;;;;;;;;;;12878899;23;20273;-82
2022/04/22 09:00:16;;;;;;;8.68;7.07;;;;;;;;;;12871217;23;20092;-80
2022/04/22 09:05:30;;;;;;;8.38;7.47;;;;;;;;;;12849047;23;20012;-81
2022/04/22 09:10:38;;;;;;;11.45;7.72;;;;;;;;;;12878190;23;20004;-81
2022/04/22 09:15:46;;;;;;;9.15;7.50;;;;;;;;;;12849869;23;20053;-82
2022/04/22 09:21:14;;;;;;;9.40;7.47;;;;;;;;;;12876667;23;20008;-83
2022/04/22 09:26:50;;;;;;;9.40;7.22;;;;;;;;;;12853145;23;20008;-85
2022/04/22 09:31:53;;;;;;;11.82;10.63;;;;;;;;;;12845688;23;20372;-79
2022/04/22 09:42:43;;;;;;;12.45;7.78;;;;;;;;;;12877661;23;20012;-78
2022/04/22 09:47:44;;;;;;;9.57;7.45;;;;;;;;;;12853177;23;20384;-78
2022/04/22 09:52:46;;;;;;;9.40;8.05;;;;;;;;;;12854409;23;20005;-76
2022/04/22 09:58:00;;;;;;;12.43;9.77;;;;;;;;;;12851825;23;20001;-79
2022/04/22 10:03:01;;;;;;;9.70;7.53;;;;;;;;;;12852295;23;20444;-78
2022/04/22 10:08:04;;;;;;;11.45;9.50;;;;;;;;;;12853227;23;20012;-79
2022/04/22 10:13:05;;;;;;;10.55;7.95;;;;;;;;;;12859645;23;20028;-79
2022/04/22 10:18:09;;;;;;;7.95;6.88;;;;;;;;;;12863850;23;20001;-80
2022/04/22 10:23:10;;;;;;;10.95;8.18;;;;;;;;;;12868564;23;20093;-79
2022/04/22 10:28:12;;;;;;;9.50;7.72;;;;;;;;;;12868903;23;20013;-81
2022/04/22 10:33:13;;;;;;;8.90;8.00;;;;;;;;;;12894484;23;20024;-81
2022/04/22 10:38:41;;;;;;;9.40;8.15;;;;;;;;;;12893843;23;20325;-80
2022/04/22 10:43:42;;;;;;;10.98;9.27;;;;;;;;;;12847444;23;20008;-84
2022/04/22 10:49:03;;;;;;;7.22;6.10;;;;;;;;;;12877964;22;19997;-85
2022/04/22 10:54:04;;;;;;;8.60;7.22;;;;;;;;;;12889487;22;20021;-81
2022/04/22 10:59:20;;;;;;;8.55;7.45;;;;;;;;;;12875486;23;20000;-83
2022/04/22 11:04:24;;;;;;;13.63;7.13;;;;;;;;;;12859030;23;20402;-85
2022/04/22 11:09:29;;;;;;;8.45;5.60;;;;;;;;;;12858894;23;20063;-83
2022/04/22 11:14:32;;;;;;;10.20;9.10;;;;;;;;;;12857242;23;20005;-84
2022/04/22 11:19:34;;;;;;;7.40;5.93;;;;;;;;;;12862220;23;20005;-83
2022/04/22 11:24:36;;;;;;;9.57;7.03;;;;;;;;;;12864191;23;20212;-81
2022/04/22 11:29:37;;;;;;;7.75;6.97;;;;;;;;;;12902044;23;20000;-81
2022/04/22 11:34:47;;;;;;;12.65;9.95;;;;;;;;;;12890748;23;20321;-83
2022/04/22 11:39:49;;;;;;;9.48;7.72;;;;;;;;;;12856464;23;20008;-83
2022/04/22 11:45:06;;;;;;;7.38;6.68;;;;;;;;;;12883330;23;20000;-82
2022/04/22 11:50:08;;;;;;;7.90;7.10;;;;;;;;;;12857076;23;20015;-82
2022/04/22 11:55:09;;;;;;;8.57;7.40;;;;;;;;;;12884648;23;20003;-82
2022/04/22 12:05:33;;;;;;;7.05;6.35;;;;;;;;;;12882654;23;20020;-82
2022/04/22 12:10:35;;;;;;;14.70;11.35;;;;;;;;;;12857522;23;20017;-84
2022/04/22 12:15:46;;;;;;;12.68;9.18;;;;;;;;;;12874956;23;20550;-82
2022/04/22 12:20:49;;;;;;;7.28;6.50;;;;;;;;;;12881030;23;20017;-82
2022/04/22 12:26:04;;;;;;;9.98;8.00;;;;;;;;;;12910564;22;20011;-83
2022/04/22 12:31:09;;;;;;;14.93;8.77;;;;;;;;;;12897366;23;20027;-79
2022/04/22 12:36:10;;;;;;;9.55;6.95;;;;;;;;;;12887812;22;20005;-80
2022/04/22 12:41:18;;;;;;;11.32;8.60;;;;;;;;;;12888691;22;19999;-82
2022/04/22 12:52:14;;;;;;;9.75;8.70;;;;;;;;;;12915909;22;20064;-83
2022/04/22 12:57:39;;;;;;;10.07;8.68;;;;;;;;;;12906096;23;20015;-85
2022/04/22 13:02:44;;;;;;;10.20;7.57;;;;;;;;;;12861145;23;20023;-85
2022/04/22 13:07:51;;;;;;;7.65;6.55;;;;;;;;;;12855219;23;20004;-84
2022/04/22 13:12:54;;;;;;;7.80;6.57;;;;;;;;;;12881311;23;20031;-85
2022/04/22 13:17:56;;;;;;;6.65;5.95;;;;;;;;;;12855166;23;20198;-84
2022/04/22 13:22:57;;;;;;;6.65;5.60;;;;;;;;;;12857760;23;20012;-83
2022/04/22 13:28:02;;;;;;;7.55;6.50;;;;;;;;;;12886569;23;20020;-83
2022/04/22 13:33:23;;;;;;;7.05;6.35;;;;;;;;;;12859183;23;20036;-83
2022/04/22 13:38:40;;;;;;;7.25;6.55;;;;;;;;;;12884524;23;20070;-83
2022/04/22 13:43:43;;;;;;;9.38;8.00;;;;;;;;;;12882490;22;19993;-80
2022/04/22 13:54:28;;;;;;;9.32;7.47;;;;;;;;;;12888610;23;20008;-82
2022/04/22 13:59:33;;;;;;;7.05;6.13;;;;;;;;;;12856977;23;20012;-85
2022/04/22 14:04:38;;;;;;;12.07;7.85;;;;;;;;;;12853503;23;20104;-80
2022/04/22 14:09:48;;;;;;;7.93;7.13;;;;;;;;;;12850595;23;20008;-83
2022/04/22 14:14:53;;;;;;;9.32;8.23;;;;;;;;;;12875426;23;19997;-83
2022/04/22 14:19:56;;;;;;;11.30;9.15;;;;;;;;;;12877777;23;20000;-83
2022/04/22 14:25:07;;;;;;;9.18;8.27;;;;;;;;;;12830087;23;20108;-82
2022/04/22 14:30:12;;;;;;;8.98;8.07;;;;;;;;;;12851751;23;20507;-83
2022/04/22 14:35:27;;;;;;;16.27;13.95;;;;;;;;;;12854927;23;20020;-84
2022/04/22 14:40:34;;;;;;;10.88;9.57;;;;;;;;;;12857630;23;20059;-84
2022/04/22 14:45:35;;;;;;;13.73;10.18;;;;;;;;;;12874098;22;20008;-81
2022/04/22 14:50:37;;;;;;;10.85;9.73;;;;;;;;;;12863474;23;20024;-85
2022/04/22 14:55:38;;;;;;;10.68;9.63;;;;;;;;;;12853699;23;20020;-84
2022/04/22 15:00:39;;;;;;;12.73;8.82;;;;;;;;;;12853744;23;20010;-84
2022/04/22 15:05:40;;;;;;;8.27;7.35;;;;;;;;;;12853659;23;20017;-83
2022/04/22 15:10:41;;;;;;;7.25;6.55;;;;;;;;;;12893432;23;20047;-83
2022/04/22 15:15:42;;;;;;;10.43;8.30;;;;;;;;;;12885282;23;20051;-84
2022/04/22 15:26:02;;;;;;;7.97;7.15;;;;;;;;;;12886167;23;20104;-82
2022/04/22 15:31:06;;;;;;;9.20;7.10;;;;;;;;;;12868185;23;20004;-83
2022/04/22 15:36:07;;;;;;;10.63;9.52;;;;;;;;;;12866143;23;20019;-80
2022/04/22 15:41:09;;;;;;;10.65;8.77;;;;;;;;;;12890217;23;20007;-82
2022/04/22 15:46:11;;;;;;;10.02;7.63;;;;;;;;;;12855874;23;20028;-81
2022/04/22 15:51:14;;;;;;;7.90;7.10;;;;;;;;;;12852106;23;20032;-80
2022/04/22 15:56:16;;;;;;;7.93;6.25;;;;;;;;;;12849024;23;20001;-79
2022/04/22 16:01:17;;;;;;;10.25;9.20;;;;;;;;;;12852847;23;20100;-79
2022/04/22 16:06:21;;;;;;;8.77;7.60;;;;;;;;;;12852927;23;20024;-80
2022/04/22 16:16:45;;;;;;;11.57;9.32;;;;;;;;;;12872701;23;20346;-79
2022/04/22 16:21:58;;;;;;;12.85;9.90;;;;;;;;;;12849868;23;20322;-87
2022/04/22 16:27:00;;;;;;;11.63;9.32;;;;;;;;;;12843186;23;20070;-87
2022/04/22 16:32:01;;;;;;;12.18;10.05;;;;;;;;;;12843464;23;20330;-86
2022/04/22 16:37:02;;;;;;;9.27;8.32;;;;;;;;;;12865073;23;20001;-85
2022/04/22 16:42:04;;;;;;;12.00;7.45;;;;;;;;;;12887833;22;19989;-86
2022/04/22 16:47:06;;;;;;;9.45;7.60;;;;;;;;;;12867841;23;20016;-86
2022/04/22 16:52:09;;;;;;;8.90;8.00;;;;;;;;;;12850343;23;20009;-85
2022/04/22 16:57:10;;;;;;;9.15;8.18;;;;;;;;;;12854805;23;20005;-84
2022/04/22 17:02:12;;;;;;;10.23;9.23;;;;;;;;;;12854253;23;20012;-85
2022/04/22 17:07:13;;;;;;;13.27;9.27;;;;;;;;;;12847147;23;20032;-85
2022/04/22 17:12:14;;;;;;;10.10;8.38;;;;;;;;;;12854828;23;20012;-84
2022/04/22 17:22:41;;;;;;;11.50;9.32;;;;;;;;;;12883484;23;20013;-84
2022/04/22 17:27:48;;;;;;;10.40;8.73;;;;;;;;;;12854282;23;20001;-84
2022/04/22 17:32:49;;;;;;;9.93;8.32;;;;;;;;;;12853741;23;20059;-85
2022/04/22 17:37:50;;;;;;;10.18;7.78;;;;;;;;;;12855350;23;20000;-85
2022/04/22 17:42:51;;;;;;;10.27;7.75;;;;;;;;;;12859912;23;20066;-83
2022/04/22 17:47:52;;;;;;;8.48;6.10;;;;;;;;;;12855876;23;20004;-83
2022/04/22 17:52:54;;;;;;;9.20;7.35;;;;;;;;;;12856313;23;20004;-85
2022/04/22 17:57:55;;;;;;;8.57;7.63;;;;;;;;;;12860269;23;20012;-84
2022/04/22 18:02:56;;;;;;;8.25;7.40;;;;;;;;;;12861640;23;20036;-84
2022/04/22 18:08:00;;;;;;;10.13;7.93;;;;;;;;;;12860541;23;20011;-85
2022/04/22 18:13:01;;;;;;;9.45;7.97;;;;;;;;;;12856812;23;20011;-84
2022/04/22 18:18:02;;;;;;;9.57;7.05;;;;;;;;;;12881134;23;20020;-84
2022/04/22 18:23:05;;;;;;;9.07;8.13;;;;;;;;;;12848633;23;20001;-86
2022/04/22 18:28:07;;;;;;;10.73;7.88;;;;;;;;;;12845851;23;20036;-87
2022/04/22 18:33:08;;;;;;;8.18;7.25;;;;;;;;;;12845507;23;20012;-86
2022/04/22 18:38:09;;;;;;;6.38;5.75;;;;;;;;;;12876528;23;19997;-84
2022/04/22 18:43:11;;;;;;;8.02;7.22;;;;;;;;;;12880329;22;20009;-84
2022/04/22 18:48:13;;;;;;;9.95;7.97;;;;;;;;;;12845662;23;20505;-86
2022/04/22 18:53:16;;;;;;;8.43;7.57;;;;;;;;;;12846731;23;20016;-86
2022/04/22 18:58:19;;;;;;;7.78;7.03;;;;;;;;;;12844646;23;20020;-86
2022/04/22 19:03:20;;;;;;;6.97;5.65;;;;;;;;;;12845445;23;20064;-86
2022/04/22 19:08:21;;;;;;;11.80;8.13;;;;;;;;;;12846758;23;20011;-87
2022/04/22 19:13:22;;;;;;;6.90;5.93;;;;;;;;;;12849150;23;20009;-84
2022/04/22 19:18:24;;;;;;;6.78;6.10;;;;;;;;;;12849976;23;20008;-83
2022/04/22 19:23:25;;;;;;;7.72;6.43;;;;;;;;;;12849191;23;20005;-83
